Newcomb, New York
Current Conditions -  °F | °C
As of 4:51 PM on Monday 20 Oct 2014 (Local Time) from KSLK Reporting Station
Overcast Overcast  
Wind Chill: 44°   Ceiling: 4000
Heat Index: 44°   Visibility: 10mi
Dew Point: 37°   Wind: 0mph
Humidity: 76%   Direction: NA
Pressure: 29.87"   Gusts: NA
Location:  43.97°N, 74.16°W
Report Text: KSLK 202051Z AUTO 00000KT 10SM FEW026 OVC040 07/03 A2987 RMK AO2 SLP128 60000 T00670028 58000 $
Loading
Personal Weather Stations






























Interactive Weather Map
Tropical Storm Tracking
New forecast layout! Learn more

10-Day Weather Forecast

Advertisements
Track Severe Weather on mobile